Time;durP1;ratioP1;P1;durP2;ratioP2;P2;SDS_P1;SDS_P2;PMS_P1;PMS_P2;Temp;Humidity;BMP_temperature;BMP_pressure;BME280_temperature;BME280_humidity;BME280_pressure;Samples;Min_cycle;Max_cycle;Signal;HPM_P1;HPM_P2
2023/05/19 00:00:55;;;;;;;9.45;5.53;;;;;;;16.14;52.79;98842.59;5094001;28;20032;-47
2023/05/19 00:03:21;;;;;;;19.08;5.82;;;;;;;16.13;52.60;98840.16;5094016;28;20028;-47
2023/05/19 00:05:48;;;;;;;13.65;5.97;;;;;;;16.09;52.73;98839.03;5093878;28;20031;-48
2023/05/19 00:08:16;;;;;;;12.35;4.75;;;;;;;16.11;52.88;98845.69;5093931;28;20451;-47
2023/05/19 00:10:42;;;;;;;13.43;5.85;;;;;;;16.09;52.74;98842.47;5093798;28;20028;-47
2023/05/19 00:13:08;;;;;;;17.40;6.10;;;;;;;16.07;53.04;98841.09;5093760;28;20584;-48
2023/05/19 00:15:34;;;;;;;11.30;5.38;;;;;;;16.07;52.91;98841.09;5094993;28;20107;-47
2023/05/19 00:17:59;;;;;;;9.88;5.90;;;;;;;16.02;53.66;98836.50;5094991;28;20405;-47
2023/05/19 00:20:25;;;;;;;15.50;6.32;;;;;;;16.02;53.76;98836.50;5094921;28;20031;-47
2023/05/19 00:22:51;;;;;;;16.75;5.50;;;;;;;15.98;53.69;98838.81;5093563;28;20035;-47
2023/05/19 00:25:16;;;;;;;19.27;8.00;;;;;;;15.99;53.80;98836.94;5094867;28;20371;-49
2023/05/19 00:27:42;;;;;;;10.73;6.40;;;;;;;15.96;54.04;98837.44;5094730;28;20031;-49
2023/05/19 00:30:08;;;;;;;10.15;5.75;;;;;;;15.97;53.95;98837.19;5094548;28;20489;-49
2023/05/19 00:32:34;;;;;;;14.15;6.53;;;;;;;15.94;53.64;98829.72;5093261;28;20058;-49
2023/05/19 00:35:00;;;;;;;10.52;6.25;;;;;;;15.92;53.85;98826.50;5094672;28;20473;-49
2023/05/19 00:37:26;;;;;;;15.38;5.95;;;;;;;15.97;53.75;98823.94;5094661;28;20031;-49
2023/05/19 00:39:52;;;;;;;12.52;5.22;;;;;;;16.14;53.64;98821.41;5093232;28;20034;-49
2023/05/19 00:42:19;;;;;;;13.88;5.30;;;;;;;16.30;53.29;98827.81;5093035;28;20130;-49
2023/05/19 00:44:44;;;;;;;9.85;4.97;;;;;;;16.47;53.02;98827.88;5094729;28;20031;-49
2023/05/19 00:47:10;;;;;;;14.13;4.88;;;;;;;16.58;52.87;98819.09;5094367;28;20502;-49
2023/05/19 00:49:35;;;;;;;13.88;5.43;;;;;;;16.69;52.27;98817.44;5093055;28;20107;-49
2023/05/19 00:52:02;;;;;;;12.68;5.20;;;;;;;16.85;52.05;98815.09;5092990;28;20401;-49
2023/05/19 00:54:28;;;;;;;14.30;5.00;;;;;;;16.90;51.53;98815.19;5094247;28;20034;-49
2023/05/19 00:56:55;;;;;;;9.65;4.78;;;;;;;16.90;51.33;98816.00;5094205;28;20099;-49
2023/05/19 00:59:21;;;;;;;8.63;4.97;;;;;;;16.85;50.74;98815.09;5093193;28;20057;-49
2023/05/19 01:01:48;;;;;;;31.77;6.55;;;;;;;16.71;50.74;98817.22;5092777;28;20028;-49
2023/05/19 01:04:20;;;;;;;13.93;5.68;;;;;;;16.56;50.99;98813.22;5092790;28;20055;-49
2023/05/19 01:06:48;;;;;;;13.90;5.70;;;;;;;16.52;51.17;98812.09;5093892;28;20067;-49
2023/05/19 01:09:15;;;;;;;11.63;4.72;;;;;;;16.48;51.19;98808.31;5093996;28;20030;-49
2023/05/19 01:11:41;;;;;;;10.63;4.30;;;;;;;16.49;51.30;98812.56;5092556;28;20066;-49
2023/05/19 01:14:09;;;;;;;15.60;6.07;;;;;;;16.60;51.56;98810.09;5093947;28;20101;-49
2023/05/19 01:17:05;;;;;;;15.00;5.18;;;;;;;16.74;51.22;98814.91;5093872;28;20068;-49
2023/05/19 01:19:55;;;;;;;23.48;11.40;;;;;;;16.71;50.85;98803.97;5092771;28;20115;-49
2023/05/19 01:22:57;;;;;;;21.00;6.13;;;;;;;16.54;50.83;98807.38;5094032;28;20401;-49
2023/05/19 01:25:33;;;;;;;16.77;8.18;;;;;;;16.37;51.06;98807.28;5092352;28;20039;-49
2023/05/19 01:27:58;;;;;;;13.52;8.88;;;;;;;16.31;51.55;98802.13;5092337;28;20039;-49
2023/05/19 01:30:46;;;;;;;12.65;5.60;;;;;;;16.28;51.69;98800.78;5092257;28;20405;-49
2023/05/19 01:33:14;;;;;;;18.27;5.80;;;;;;;16.12;51.38;98799.66;5092270;28;20069;-49
2023/05/19 01:35:41;;;;;;;10.25;5.30;;;;;;;15.93;51.91;98796.31;5092146;28;20439;-49
2023/05/19 01:38:09;;;;;;;11.90;5.03;;;;;;;15.77;52.58;98804.97;5093450;28;20048;-49
2023/05/19 01:40:40;;;;;;;17.10;5.38;;;;;;;15.68;53.05;98804.50;5091823;28;20056;-50
2023/05/19 01:43:08;;;;;;;15.85;5.55;;;;;;;15.67;53.87;98796.78;5092625;28;20024;-49
2023/05/19 01:45:35;;;;;;;10.13;5.82;;;;;;;15.57;54.99;98798.19;5093128;28;20028;-49
2023/05/19 01:48:03;;;;;;;9.60;6.28;;;;;;;15.42;56.51;98803.09;5091945;28;20092;-49
2023/05/19 01:50:29;;;;;;;15.88;6.95;;;;;;;15.15;58.04;98810.63;5091852;28;20032;-49
2023/05/19 01:52:55;;;;;;;15.00;6.25;;;;;;;14.99;58.89;98806.84;5093455;28;20462;-49
2023/05/19 01:55:22;;;;;;;13.35;7.43;;;;;;;14.83;59.37;98818.84;5091753;28;20062;-50
2023/05/19 01:58:13;;;;;;;12.20;10.63;;;;;;;14.64;60.18;98818.06;5091757;28;20032;-49
2023/05/19 02:00:55;;;;;;;49.28;44.95;;;;;;;14.25;61.20;98812.22;5091687;28;20027;-49
2023/05/19 02:03:39;;;;;;;11.10;7.60;;;;;;;14.08;62.56;98817.28;5093005;28;20046;-49
2023/05/19 02:06:30;;;;;;;14.23;7.47;;;;;;;14.06;62.83;98815.88;5091565;28;20035;-49
2023/05/19 02:09:03;;;;;;;17.98;7.38;;;;;;;14.15;62.61;98817.22;5092976;28;20499;-49
2023/05/19 02:11:38;;;;;;;13.02;7.43;;;;;;;14.21;62.79;98816.34;5091599;28;20486;-49
2023/05/19 02:14:14;;;;;;;12.23;6.50;;;;;;;14.26;62.37;98810.38;5091513;28;20043;-49
2023/05/19 02:16:45;;;;;;;6.35;5.03;;;;;;;14.21;61.77;98818.19;5092726;28;20020;-50
2023/05/19 02:19:25;;;;;;;8.90;5.75;;;;;;;13.99;61.49;98813.34;5091379;28;20022;-49
2023/05/19 02:21:51;;;;;;;11.45;6.25;;;;;;;13.81;62.02;98816.75;5091419;28;20028;-49
2023/05/19 02:24:18;;;;;;;10.70;5.63;;;;;;;13.82;62.24;98815.72;5092598;28;20027;-49
2023/05/19 02:26:45;;;;;;;20.83;5.97;;;;;;;13.82;62.41;98809.63;5092502;28;20028;-50
2023/05/19 02:29:11;;;;;;;9.10;6.25;;;;;;;13.85;62.24;98812.66;5092560;28;20020;-49
2023/05/19 02:31:37;;;;;;;8.68;6.18;;;;;;;13.74;61.93;98808.91;5092745;28;20424;-49
2023/05/19 02:34:02;;;;;;;13.98;5.40;;;;;;;13.69;62.76;98818.50;5091143;28;20028;-49
2023/05/19 02:36:31;;;;;;;13.32;5.43;;;;;;;13.77;62.94;98815.56;5092411;28;20028;-49
2023/05/19 02:38:56;;;;;;;12.93;5.40;;;;;;;13.71;63.02;98817.25;5091014;28;20094;-49
2023/05/19 02:41:22;;;;;;;7.68;5.03;;;;;;;13.62;62.97;98809.81;5090802;28;20047;-49
2023/05/19 02:43:47;;;;;;;9.23;5.82;;;;;;;13.54;63.38;98811.72;5092346;28;20024;-49
2023/05/19 02:46:13;;;;;;;15.48;5.65;;;;;;;13.44;63.47;98808.78;5090862;28;20040;-49
2023/05/19 02:48:38;;;;;;;9.63;5.72;;;;;;;13.43;63.62;98809.00;5090966;28;20032;-50
2023/05/19 02:51:04;;;;;;;11.60;6.53;;;;;;;13.43;63.75;98804.50;5090843;28;20379;-49
2023/05/19 02:53:31;;;;;;;17.30;5.90;;;;;;;13.51;63.77;98806.06;5092100;28;20035;-49
2023/05/19 02:55:57;;;;;;;10.63;5.85;;;;;;;13.58;63.91;98807.63;5092162;28;20026;-49
2023/05/19 02:58:22;;;;;;;14.80;6.18;;;;;;;13.64;63.84;98805.94;5090781;28;20032;-49
2023/05/19 03:00:48;;;;;;;16.60;6.50;;;;;;;13.66;63.84;98805.72;5090735;28;20105;-49
2023/05/19 03:03:13;;;;;;;11.60;6.57;;;;;;;13.68;63.54;98799.22;5092075;28;20443;-49
2023/05/19 03:05:40;;;;;;;11.10;5.60;;;;;;;13.59;63.86;98805.81;5090595;28;20520;-50
2023/05/19 03:08:05;;;;;;;14.85;5.97;;;;;;;13.49;63.75;98801.00;5090664;28;20119;-49
2023/05/19 03:10:31;;;;;;;10.40;6.60;;;;;;;13.34;64.09;98809.25;5090593;28;20157;-49
2023/05/19 03:12:57;;;;;;;12.82;6.82;;;;;;;13.22;64.12;98803.03;5091902;28;20024;-49
2023/05/19 03:15:22;;;;;;;9.02;6.15;;;;;;;13.15;64.77;98810.16;5091913;28;20073;-49
2023/05/19 03:17:48;;;;;;;7.95;5.93;;;;;;;13.23;64.44;98807.28;5090860;28;20465;-49
2023/05/19 03:20:16;;;;;;;14.95;7.50;;;;;;;13.25;64.75;98807.06;5090506;28;20024;-49
2023/05/19 03:22:42;;;;;;;13.95;6.70;;;;;;;13.26;64.71;98801.59;5091853;28;20097;-49
2023/05/19 03:25:08;;;;;;;25.13;8.02;;;;;;;13.33;64.51;98801.56;5091873;28;20020;-49
2023/05/19 03:27:34;;;;;;;11.10;6.80;;;;;;;13.44;64.09;98797.41;5092118;28;20042;-49
2023/05/19 03:30:00;;;;;;;8.43;5.68;;;;;;;13.51;64.50;98791.06;5073626;28;20028;-49
2023/05/19 03:32:25;;;;;;;9.77;5.75;;;;;;;13.54;64.06;98792.44;5091703;28;20106;-49
2023/05/19 03:34:51;;;;;;;10.80;6.32;;;;;;;13.52;63.63;98792.69;5091744;28;20027;-49
2023/05/19 03:37:17;;;;;;;15.15;6.53;;;;;;;13.45;63.43;98791.91;5091705;28;20156;-50
2023/05/19 03:39:43;;;;;;;13.77;6.40;;;;;;;13.44;63.55;98792.13;5073582;28;20031;-49
2023/05/19 03:42:08;;;;;;;15.48;6.45;;;;;;;13.52;63.56;98791.84;5090342;28;20060;-49
2023/05/19 03:44:35;;;;;;;11.63;5.85;;;;;;;13.62;63.20;98797.44;5090682;28;20028;-49
2023/05/19 03:47:01;;;;;;;12.85;6.03;;;;;;;13.66;62.46;98788.09;5090216;28;20035;-49
2023/05/19 03:49:26;;;;;;;10.68;5.93;;;;;;;13.72;62.88;98797.78;5090267;28;20028;-49
2023/05/19 03:51:52;;;;;;;11.32;6.22;;;;;;;13.70;62.57;98789.28;5073518;28;20085;-49
2023/05/19 03:54:19;;;;;;;9.00;5.82;;;;;;;13.65;62.28;98801.50;5091662;28;20046;-49
2023/05/19 03:56:45;;;;;;;10.25;6.10;;;;;;;13.59;62.86;98798.69;5091466;28;20046;-49
2023/05/19 03:59:11;;;;;;;14.43;6.05;;;;;;;13.66;62.77;98798.66;5091562;28;20034;-49
2023/05/19 04:01:37;;;;;;;14.82;6.45;;;;;;;13.70;62.68;98802.47;5091458;28;20094;-49
2023/05/19 04:04:03;;;;;;;17.60;6.70;;;;;;;13.75;62.97;98799.97;5090267;28;20027;-49
2023/05/19 04:06:29;;;;;;;13.43;6.55;;;;;;;13.75;62.53;98797.31;5093326;28;20512;-49
2023/05/19 04:08:55;;;;;;;14.80;6.47;;;;;;;13.74;62.75;98801.00;5093939;28;20024;-50
2023/05/19 04:11:21;;;;;;;9.20;6.00;;;;;;;13.62;62.77;98797.44;5093829;28;20020;-49
2023/05/19 04:13:46;;;;;;;11.32;6.25;;;;;;;13.41;63.19;98795.22;5093817;28;20054;-50
2023/05/19 04:16:12;;;;;;;9.23;6.57;;;;;;;13.27;63.81;98794.47;5093817;28;20077;-49
2023/05/19 04:18:38;;;;;;;7.63;6.28;;;;;;;13.26;64.58;98791.03;5095100;28;20445;-49
2023/05/19 04:21:04;;;;;;;11.85;6.43;;;;;;;13.21;65.01;98800.59;5093647;28;20218;-49
2023/05/19 04:23:31;;;;;;;11.60;6.40;;;;;;;13.14;64.79;98798.84;5094015;28;20024;-49
2023/05/19 04:25:57;;;;;;;11.82;6.40;;;;;;;13.06;64.88;98799.09;5093514;28;20119;-49
2023/05/19 04:28:23;;;;;;;9.27;6.28;;;;;;;12.99;64.96;98801.75;5093519;28;20020;-49
2023/05/19 04:30:49;;;;;;;10.93;7.00;;;;;;;12.95;65.02;98802.41;5093515;28;20031;-49
2023/05/19 04:33:15;;;;;;;17.45;7.28;;;;;;;12.94;65.46;98798.97;5093407;28;20035;-49
2023/05/19 04:35:42;;;;;;;8.50;6.20;;;;;;;13.09;65.58;98800.50;5094713;28;20393;-49
2023/05/19 04:38:08;;;;;;;11.40;6.10;;;;;;;13.16;64.76;98809.97;5094681;28;20103;-49
2023/05/19 04:40:34;;;;;;;11.30;6.10;;;;;;;13.21;64.96;98808.50;5094415;28;20111;-49
2023/05/19 04:43:00;;;;;;;11.55;5.90;;;;;;;13.29;64.75;98814.34;5094626;28;20081;-49
2023/05/19 04:45:26;;;;;;;15.65;6.70;;;;;;;13.36;64.47;98815.13;5094776;28;20393;-49
2023/05/19 04:47:56;;;;;;;15.60;6.35;;;;;;;13.52;64.82;98812.94;5094480;28;20108;-50
2023/05/19 04:50:22;;;;;;;12.73;6.05;;;;;;;13.75;64.10;98802.59;5093118;28;20031;-49
2023/05/19 04:52:48;;;;;;;19.90;6.75;;;;;;;13.93;63.49;98809.72;5093203;28;20032;-49
2023/05/19 04:55:14;;;;;;;11.73;6.43;;;;;;;14.05;62.28;98807.19;5094603;28;20039;-50
2023/05/19 04:57:40;;;;;;;29.20;6.55;;;;;;;14.02;61.82;98812.06;5094256;28;20020;-49
2023/05/19 05:00:09;;;;;;;14.15;6.50;;;;;;;13.93;61.97;98812.38;5093000;28;20028;-49
2023/05/19 05:02:34;;;;;;;13.32;6.05;;;;;;;13.93;61.89;98811.56;5092957;28;20028;-49
2023/05/19 05:05:01;;;;;;;13.70;6.18;;;;;;;14.02;61.82;98812.88;5092912;28;20024;-49
2023/05/19 05:07:26;;;;;;;13.70;6.22;;;;;;;14.14;61.06;98816.41;5094079;28;20435;-49
2023/05/19 05:09:52;;;;;;;17.80;6.30;;;;;;;14.31;60.64;98815.81;5094329;28;20024;-49
2023/05/19 05:12:18;;;;;;;16.15;6.88;;;;;;;14.68;60.26;98810.50;5094059;28;20031;-49
2023/05/19 05:14:44;;;;;;;13.43;5.93;;;;;;;15.55;58.02;98815.28;5092939;28;20789;-49
2023/05/19 05:17:11;;;;;;;11.85;6.13;;;;;;;16.81;54.86;98816.59;5092949;28;20023;-49
2023/05/19 05:19:38;;;;;;;12.80;6.05;;;;;;;18.12;51.54;98803.00;5093738;28;20113;-49
2023/05/19 05:22:05;;;;;;;10.05;5.18;;;;;;;19.28;48.62;98798.34;5093792;28;20394;-49
2023/05/19 05:24:31;;;;;;;12.82;5.65;;;;;;;20.34;46.16;98796.59;5093722;28;20051;-49
2023/05/19 05:26:58;;;;;;;20.23;6.75;;;;;;;21.37;44.28;98801.28;5093585;28;20402;-48
2023/05/19 05:29:24;;;;;;;11.23;5.55;;;;;;;22.36;42.02;98792.81;5093638;28;20129;-47
2023/05/19 05:31:50;;;;;;;12.20;5.32;;;;;;;23.11;40.07;98784.59;5092334;28;20031;-47
2023/05/19 05:34:16;;;;;;;14.52;5.80;;;;;;;23.62;39.12;98788.66;5093511;28;20398;-47
2023/05/19 05:36:42;;;;;;;13.63;6.13;;;;;;;24.03;37.61;98780.22;5092222;28;20073;-47
2023/05/19 05:39:07;;;;;;;18.90;5.80;;;;;;;24.30;36.72;98793.81;5092126;28;20444;-47
2023/05/19 05:41:36;;;;;;;13.98;5.05;;;;;;;24.61;36.04;98787.25;5091957;28;20591;-47
2023/05/19 05:44:02;;;;;;;13.70;6.03;;;;;;;24.68;35.62;98790.38;5092041;28;20032;-47
2023/05/19 05:46:27;;;;;;;11.88;5.43;;;;;;;24.67;34.79;98786.91;5093210;28;20020;-48
2023/05/19 05:48:53;;;;;;;12.25;5.55;;;;;;;25.21;34.38;98783.94;5092223;28;20027;-47
2023/05/19 05:51:23;;;;;;;15.15;5.38;;;;;;;25.83;33.19;98789.81;5091799;28;20032;-48
2023/05/19 05:53:53;;;;;;;11.98;5.53;;;;;;;26.46;31.98;98780.25;5074795;28;20032;-47
2023/05/19 05:56:20;;;;;;;16.58;5.45;;;;;;;26.90;31.28;98780.59;5091635;28;20027;-47
2023/05/19 05:58:46;;;;;;;6.47;5.20;;;;;;;27.37;30.96;98780.31;5093006;28;20073;-47
2023/05/19 06:01:12;;;;;;;8.32;4.47;;;;;;;27.38;30.39;98781.88;5091673;28;20020;-47
2023/05/19 06:03:40;;;;;;;11.02;5.38;;;;;;;26.99;30.52;98781.47;5091644;28;20020;-47
2023/05/19 06:06:06;;;;;;;10.95;5.85;;;;;;;27.41;29.76;98775.91;5092876;28;20028;-48
2023/05/19 06:08:31;;;;;;;11.85;5.70;;;;;;;27.43;29.88;98784.47;5092902;28;20031;-48
2023/05/19 06:10:57;;;;;;;17.77;5.57;;;;;;;28.00;29.54;98781.84;5092864;28;20031;-48
2023/05/19 06:13:24;;;;;;;9.85;4.60;;;;;;;28.84;27.99;98777.19;5091454;28;20107;-47
2023/05/19 06:15:51;;;;;;;10.45;5.38;;;;;;;29.21;27.26;98776.84;5092727;28;20030;-48
2023/05/19 06:18:17;;;;;;;11.55;4.97;;;;;;;29.47;26.72;98772.16;5091313;28;20031;-48
2023/05/19 06:20:43;;;;;;;6.97;4.60;;;;;;;29.78;26.31;98781.13;5092602;28;20028;-48
2023/05/19 06:23:11;;;;;;;12.95;5.43;;;;;;;29.35;26.92;98774.75;5092560;28;20401;-47
2023/05/19 06:25:37;;;;;;;10.48;4.70;;;;;;;29.44;26.77;98772.03;5092759;28;20020;-47
2023/05/19 06:28:03;;;;;;;16.48;4.72;;;;;;;29.64;26.49;98765.09;5091011;28;20451;-48
2023/05/19 06:30:28;;;;;;;15.48;5.13;;;;;;;29.94;26.27;98770.56;5090874;28;20062;-47
2023/05/19 06:32:55;;;;;;;11.50;5.47;;;;;;;30.06;25.97;98762.53;5091155;28;20027;-47
2023/05/19 06:35:21;;;;;;;16.85;5.43;;;;;;;30.16;25.42;98761.34;5092369;28;20028;-47
2023/05/19 06:37:46;;;;;;;16.63;5.32;;;;;;;30.46;25.24;98767.53;5092326;28;20566;-47
2023/05/19 06:40:12;;;;;;;13.90;5.32;;;;;;;30.61;25.04;98760.75;5092347;28;20031;-48
2023/05/19 06:42:38;;;;;;;23.35;5.78;;;;;;;30.45;24.98;98771.38;5090806;28;20052;-47
2023/05/19 06:45:04;;;;;;;10.63;4.88;;;;;;;30.36;25.24;98779.56;5090882;28;20115;-47
2023/05/19 06:47:30;;;;;;;18.63;5.90;;;;;;;30.63;25.02;98772.03;5092136;28;20095;-47
2023/05/19 06:49:56;;;;;;;10.07;4.80;;;;;;;30.85;24.57;98770.91;5092139;28;20546;-47
2023/05/19 06:52:22;;;;;;;11.02;5.18;;;;;;;31.14;24.68;98763.78;5091077;28;20028;-47
2023/05/19 06:54:49;;;;;;;10.82;5.15;;;;;;;31.47;24.44;98771.09;5092057;28;20028;-47
2023/05/19 06:57:14;;;;;;;15.93;5.38;;;;;;;31.74;24.07;98765.00;5092064;28;20073;-47
2023/05/19 06:59:42;;;;;;;16.55;5.82;;;;;;;31.93;23.65;98761.72;5090721;28;20024;-47
2023/05/19 07:02:08;;;;;;;12.50;5.22;;;;;;;32.08;23.61;98767.63;5092041;28;20027;-47
2023/05/19 07:04:35;;;;;;;11.27;4.82;;;;;;;32.20;23.32;98767.59;5090658;28;20092;-47
2023/05/19 07:07:01;;;;;;;12.02;5.07;;;;;;;32.08;23.27;98768.41;5091895;28;20024;-48
2023/05/19 07:09:27;;;;;;;11.82;5.40;;;;;;;31.99;23.04;98771.19;5091843;28;20134;-47
2023/05/19 07:11:55;;;;;;;10.80;5.25;;;;;;;32.07;23.30;98763.31;5090624;28;20461;-47
2023/05/19 07:14:21;;;;;;;15.50;6.18;;;;;;;31.88;23.38;98767.38;5091868;28;20032;-47
2023/05/19 07:16:46;;;;;;;12.65;5.30;;;;;;;31.33;24.02;98765.94;5091872;28;20050;-47
2023/05/19 07:19:12;;;;;;;12.93;5.95;;;;;;;31.21;24.38;98770.25;5090498;28;20119;-47
2023/05/19 07:21:38;;;;;;;12.02;5.35;;;;;;;31.37;23.73;98762.25;5090474;28;20042;-48
2023/05/19 07:24:04;;;;;;;12.18;4.97;;;;;;;31.31;23.83;98768.22;5090452;28;20118;-47
2023/05/19 07:26:29;;;;;;;16.73;5.50;;;;;;;31.28;24.05;98769.69;5091888;28;20067;-47
2023/05/19 07:28:56;;;;;;;15.15;5.35;;;;;;;31.02;24.45;98767.25;5090438;28;20569;-47
2023/05/19 07:31:22;;;;;;;17.38;6.53;;;;;;;30.60;24.94;98759.94;5091680;28;20398;-48
2023/05/19 07:33:48;;;;;;;8.63;4.85;;;;;;;30.44;25.06;98767.06;5091690;28;20375;-48
2023/05/19 07:36:13;;;;;;;15.02;4.82;;;;;;;30.60;25.02;98759.16;5091667;28;20024;-47
2023/05/19 07:38:39;;;;;;;14.82;5.32;;;;;;;30.88;24.79;98756.69;5091629;28;20035;-48
2023/05/19 07:41:05;;;;;;;8.52;4.95;;;;;;;31.06;24.28;98765.44;5092812;28;20048;-47
2023/05/19 07:43:30;;;;;;;11.07;5.55;;;;;;;31.16;24.79;98762.31;5094362;28;20108;-48
2023/05/19 07:45:56;;;;;;;8.05;4.93;;;;;;;31.49;24.03;98753.34;5094229;28;20409;-47
2023/05/19 07:48:24;;;;;;;17.52;5.47;;;;;;;31.83;23.98;98752.13;5095550;28;20107;-48
2023/05/19 07:50:51;;;;;;;11.75;4.82;;;;;;;31.67;23.80;98759.34;5095514;28;20024;-48
2023/05/19 07:53:17;;;;;;;15.45;5.40;;;;;;;31.77;24.07;98752.69;5094417;28;20063;-48
2023/05/19 07:55:43;;;;;;;22.58;6.05;;;;;;;32.16;23.18;98755.84;5094196;28;20056;-48
2023/05/19 07:58:09;;;;;;;6.95;4.82;;;;;;;32.37;23.21;98753.75;5095406;28;20074;-47
2023/05/19 08:00:35;;;;;;;10.05;4.90;;;;;;;32.58;22.26;98750.09;5095416;28;20042;-48
2023/05/19 08:03:01;;;;;;;9.70;5.60;;;;;;;32.81;22.71;98742.19;5093947;28;20084;-48
2023/05/19 08:05:28;;;;;;;10.00;4.70;;;;;;;32.76;22.72;98740.50;5093979;28;20028;-48
2023/05/19 08:07:55;;;;;;;23.33;6.57;;;;;;;33.09;22.25;98734.00;5093880;28;20039;-48
2023/05/19 08:10:21;;;;;;;16.30;5.97;;;;;;;33.38;21.55;98737.44;5093831;28;20111;-48
2023/05/19 08:12:46;;;;;;;20.45;6.53;;;;;;;33.48;21.58;98742.34;5093835;28;20523;-48
2023/05/19 08:15:12;;;;;;;24.23;6.00;;;;;;;33.61;21.08;98737.63;5095133;28;20418;-48
2023/05/19 08:17:38;;;;;;;19.58;5.07;;;;;;;33.90;21.17;98735.56;5093697;28;20028;-47
2023/05/19 08:20:07;;;;;;;37.38;6.95;;;;;;;34.50;20.73;98738.03;5093905;28;20363;-48
2023/05/19 08:22:33;;;;;;;22.48;6.95;;;;;;;34.74;20.23;98735.03;5093634;28;20031;-48
2023/05/19 08:24:58;;;;;;;32.13;7.53;;;;;;;34.81;20.14;98732.44;5093830;28;20032;-48
2023/05/19 08:27:24;;;;;;;15.23;5.07;;;;;;;35.17;19.89;98724.13;5093371;28;20405;-48
2023/05/19 08:29:50;;;;;;;12.98;5.18;;;;;;;35.70;19.74;98710.56;5093487;28;20024;-45
2023/05/19 08:32:16;;;;;;;14.88;5.63;;;;;;;36.10;19.60;98716.56;5094752;28;20103;-46
2023/05/19 08:34:42;;;;;;;14.02;5.15;;;;;;;36.47;18.83;98713.94;5094941;28;20051;-46
2023/05/19 08:37:08;;;;;;;21.10;6.35;;;;;;;36.85;18.90;98713.97;5094720;28;20486;-48
2023/05/19 08:39:34;;;;;;;24.30;6.93;;;;;;;34.95;19.99;98710.09;5094660;28;20020;-47
2023/05/19 08:42:00;;;;;;;21.50;6.00;;;;;;;34.15;20.99;98715.16;5094631;28;20044;-48
2023/05/19 08:44:26;;;;;;;13.35;5.40;;;;;;;34.32;20.07;98710.44;5093189;28;20031;-47
2023/05/19 08:46:57;;;;;;;18.90;5.60;;;;;;;34.81;20.63;98713.38;5093061;28;20016;-48
2023/05/19 08:49:29;;;;;;;22.85;7.50;;;;;;;35.31;19.86;98710.72;5093191;28;20077;-48
2023/05/19 08:52:20;;;;;;;25.40;6.75;;;;;;;35.43;19.56;98708.97;5094403;28;20024;-45
2023/05/19 08:55:11;;;;;;;25.92;7.18;;;;;;;35.51;18.99;98716.88;5083739;28;20032;-45
2023/05/19 08:57:37;;;;;;;23.40;6.38;;;;;;;35.46;19.78;98717.22;5093835;28;20454;-45
2023/05/19 09:00:11;;;;;;;16.02;5.97;;;;;;;35.37;19.51;98713.94;5094167;28;20062;-46
2023/05/19 09:02:38;;;;;;;22.33;6.75;;;;;;;35.44;19.33;98713.25;5093176;28;20023;-45
2023/05/19 09:05:05;;;;;;;21.17;5.60;;;;;;;35.31;19.40;98707.22;5094076;28;20032;-45
2023/05/19 09:07:34;;;;;;;25.70;6.38;;;;;;;34.58;19.73;98718.72;5092669;28;20058;-45
2023/05/19 09:10:00;;;;;;;17.88;5.85;;;;;;;34.18;20.28;98717.16;5094002;28;20032;-45
2023/05/19 09:12:27;;;;;;;18.10;5.70;;;;;;;33.64;20.26;98715.16;5075995;28;20027;-45
2023/05/19 09:14:52;;;;;;;30.80;7.15;;;;;;;33.29;21.23;98718.59;5092902;28;20024;-47
2023/05/19 09:17:18;;;;;;;9.00;5.05;;;;;;;33.42;21.24;98722.81;5093853;28;20023;-48
2023/05/19 09:19:46;;;;;;;31.35;8.38;;;;;;;33.79;20.86;98706.19;5092568;28;20024;-48
2023/05/19 09:22:14;;;;;;;11.43;4.85;;;;;;;34.73;20.04;98711.66;5093739;28;20081;-48
2023/05/19 09:24:41;;;;;;;10.65;4.85;;;;;;;34.53;20.20;98708.13;5093667;28;20493;-48
2023/05/19 09:27:07;;;;;;;14.10;5.15;;;;;;;33.76;20.78;98717.75;5093573;28;20020;-46
2023/05/19 09:29:33;;;;;;;17.48;5.65;;;;;;;33.90;20.66;98706.41;5092577;28;20111;-45
2023/05/19 09:32:04;;;;;;;18.27;5.57;;;;;;;34.32;20.49;98707.72;5093563;28;20103;-46
2023/05/19 09:34:30;;;;;;;10.20;4.80;;;;;;;35.13;19.86;98704.16;5093859;28;20081;-46
2023/05/19 09:36:58;;;;;;;10.52;4.50;;;;;;;36.09;18.87;98701.34;5093505;28;20020;-46
2023/05/19 09:39:24;;;;;;;13.50;4.63;;;;;;;37.09;18.26;98694.25;5093412;28;20454;-49
2023/05/19 09:41:57;;;;;;;10.15;4.00;;;;;;;37.84;17.37;98696.00;5091859;28;20052;-49
2023/05/19 09:44:29;;;;;;;;;;;;;;;37.19;17.70;98692.81;5092577;28;20051;-49
2023/05/19 09:46:55;;;;;;;14.20;4.60;;;;;;;35.70;18.71;98687.91;5093340;28;19956;-49
2023/05/19 09:49:31;;;;;;;13.60;4.78;;;;;;;34.56;20.00;98687.53;5092172;28;20043;-46
2023/05/19 09:51:59;;;;;;;14.23;5.82;;;;;;;33.73;20.62;98696.72;5093349;28;20028;-45
2023/05/19 09:54:30;;;;;;;11.75;4.80;;;;;;;32.86;21.56;98692.19;5093174;28;20023;-48
2023/05/19 09:57:00;;;;;;;20.33;5.22;;;;;;;33.14;21.49;98690.25;5093107;28;20024;-49
2023/05/19 09:59:27;;;;;;;11.45;4.40;;;;;;;34.49;20.45;98681.94;5093125;28;20048;-46
2023/05/19 10:01:55;;;;;;;8.88;4.28;;;;;;;35.16;19.50;98668.78;5092954;28;20046;-46
2023/05/19 10:04:26;;;;;;;14.85;4.40;;;;;;;34.11;20.16;98675.31;5092372;28;20028;-46
2023/05/19 10:06:59;;;;;;;15.35;4.35;;;;;;;32.53;21.38;98683.16;5091578;28;20059;-45
2023/05/19 10:09:26;;;;;;;14.25;4.50;;;;;;;30.89;23.35;98682.41;5092899;28;20077;-48
2023/05/19 10:11:54;;;;;;;11.50;4.53;;;;;;;30.29;24.17;98684.50;5092851;28;20028;-48
2023/05/19 10:14:24;;;;;;;12.95;5.07;;;;;;;30.62;23.92;98679.13;5092971;28;20035;-48
2023/05/19 10:16:51;;;;;;;10.60;4.28;;;;;;;30.33;24.38;98674.63;5092768;28;20028;-48
2023/05/19 10:19:20;;;;;;;11.18;4.97;;;;;;;29.65;25.35;98678.22;5091383;28;20028;-48
2023/05/19 10:21:46;;;;;;;8.68;4.10;;;;;;;29.03;25.39;98681.47;5092676;28;20024;-48
2023/05/19 10:24:12;;;;;;;10.63;4.15;;;;;;;29.11;25.60;98669.88;5091307;28;20409;-48
2023/05/19 10:26:42;;;;;;;12.95;4.25;;;;;;;30.52;24.46;98673.34;5092456;28;20066;-48
2023/05/19 10:29:09;;;;;;;14.07;4.38;;;;;;;30.97;23.80;98667.16;5092559;28;20024;-48
2023/05/19 10:31:36;;;;;;;10.52;3.70;;;;;;;30.65;23.90;98667.63;5092691;28;20028;-48
2023/05/19 10:34:20;;;;;;;9.90;3.90;;;;;;;30.31;24.18;98671.44;5091415;28;20038;-48
2023/05/19 10:37:08;;;;;;;10.93;3.90;;;;;;;29.64;24.53;98668.53;5092335;28;20043;-48
2023/05/19 10:39:35;;;;;;;15.07;4.45;;;;;;;29.38;24.69;98665.16;5092424;28;20028;-47
2023/05/19 10:42:31;;;;;;;9.88;4.15;;;;;;;29.12;25.88;98674.19;5090772;28;20075;-48
2023/05/19 10:45:17;;;;;;;10.80;4.20;;;;;;;28.95;26.03;98666.09;5081407;28;20048;-48
2023/05/19 10:47:43;;;;;;;11.00;4.18;;;;;;;28.73;26.35;98667.88;5092131;28;20028;-48
2023/05/19 10:50:10;;;;;;;12.18;4.28;;;;;;;28.51;26.43;98670.78;5090827;28;20591;-48
2023/05/19 10:52:39;;;;;;;9.38;4.00;;;;;;;28.30;27.09;98668.72;5092172;28;20019;-48
2023/05/19 10:55:16;;;;;;;10.00;3.75;;;;;;;28.09;27.71;98665.84;5092088;28;20485;-48
2023/05/19 10:58:02;;;;;;;13.18;4.50;;;;;;;27.76;27.69;98657.38;5092101;28;20102;-48
2023/05/19 11:00:30;;;;;;;9.90;4.03;;;;;;;27.49;27.84;98670.00;5091877;28;20577;-48
2023/05/19 11:03:13;;;;;;;10.13;3.60;;;;;;;27.19;28.70;98658.94;5090688;28;20032;-47
2023/05/19 11:05:39;;;;;;;9.85;3.40;;;;;;;27.00;28.68;98666.44;5092013;28;20513;-48
2023/05/19 11:08:10;;;;;;;11.10;3.90;;;;;;;26.94;28.36;98656.91;5090781;28;20028;-48
2023/05/19 11:10:36;;;;;;;14.20;3.60;;;;;;;27.25;28.24;98659.63;5074549;28;20028;-48
2023/05/19 11:13:03;;;;;;;11.73;3.45;;;;;;;27.96;27.60;98659.50;5090873;28;20128;-48
2023/05/19 11:15:35;;;;;;;8.65;3.45;;;;;;;28.56;27.23;98651.75;5090844;28;20081;-48
2023/05/19 11:18:01;;;;;;;11.90;6.88;;;;;;;29.03;26.37;98649.84;5092133;28;20024;-48
2023/05/19 11:20:28;;;;;;;12.68;3.95;;;;;;;29.50;25.45;98640.13;5092107;28;20024;-48
2023/05/19 11:23:07;;;;;;;8.98;3.55;;;;;;;29.83;25.25;98641.06;5091707;28;20486;-48
2023/05/19 11:25:47;;;;;;;5.72;3.15;;;;;;;30.31;24.69;98632.75;5091711;28;20494;-48
2023/05/19 11:28:19;;;;;;;10.50;4.35;;;;;;;30.55;24.45;98624.72;5091679;28;20023;-48
2023/05/19 11:30:50;;;;;;;15.43;3.70;;;;;;;31.08;23.68;98626.88;5091625;28;20035;-47